createdAt,value
2023-04-02T00:00:38.760Z,231.81
2023-04-02T00:01:38.826Z,231.25
2023-04-02T00:02:38.895Z,230.34
2023-04-02T00:03:38.788Z,229.22
2023-04-02T00:04:38.733Z,231.27
2023-04-02T00:05:38.749Z,232.57
2023-04-02T00:06:38.741Z,230.61
2023-04-02T00:07:38.749Z,229.90
2023-04-02T00:08:38.766Z,229.48
2023-04-02T00:09:38.752Z,229.73
2023-04-02T00:10:38.719Z,230.52
2023-04-02T00:11:38.719Z,229.91
2023-04-02T00:12:38.713Z,233.47
2023-04-02T00:13:38.718Z,231.39
2023-04-02T00:14:38.718Z,231.67
2023-04-02T00:15:38.714Z,232.47
2023-04-02T00:16:38.740Z,233.67
2023-04-02T00:17:38.710Z,230.72
2023-04-02T00:18:38.697Z,229.73
2023-04-02T00:19:38.698Z,232.29
2023-04-02T00:20:38.712Z,233.62
2023-04-02T00:21:39.928Z,229.67
2023-04-02T00:22:38.705Z,230.58
2023-04-02T00:23:38.729Z,231.57
2023-04-02T00:24:38.703Z,230.28
2023-04-02T00:25:38.701Z,232.85
2023-04-02T00:26:38.700Z,232.89
2023-04-02T00:27:38.713Z,232.61
2023-04-02T00:28:38.715Z,233.05
2023-04-02T00:29:38.689Z,232.54
2023-04-02T00:30:38.696Z,232.86
2023-04-02T00:31:38.707Z,230.67
2023-04-02T00:32:38.706Z,229.50
2023-04-02T00:33:38.681Z,232.54
2023-04-02T00:34:38.687Z,231.89
2023-04-02T00:35:38.741Z,229.80
2023-04-02T00:36:38.691Z,230.72
2023-04-02T00:37:38.838Z,232.23
2023-04-02T00:38:38.724Z,230.89
2023-04-02T00:39:38.672Z,234.25
2023-04-02T00:40:38.666Z,229.93
2023-04-02T00:41:38.740Z,229.51
2023-04-02T00:42:38.664Z,228.77
2023-04-02T00:43:38.673Z,233.30
2023-04-02T00:44:38.681Z,232.18
2023-04-02T00:45:38.696Z,230.65
2023-04-02T00:46:38.671Z,229.49
2023-04-02T00:47:38.687Z,228.55
2023-04-02T00:48:38.670Z,230.24
2023-04-02T00:49:38.677Z,230.32
2023-04-02T00:50:38.653Z,228.51
2023-04-02T00:51:38.656Z,228.20
2023-04-02T00:52:38.667Z,230.09
2023-04-02T00:53:38.661Z,229.67
2023-04-02T00:54:38.658Z,229.42
2023-04-02T00:55:38.662Z,230.47
2023-04-02T00:56:38.660Z,230.94
2023-04-02T00:57:38.654Z,229.89
2023-04-02T00:58:38.659Z,230.04
2023-04-02T00:59:38.659Z,229.36
2023-04-02T01:00:38.662Z,230.02
2023-04-02T01:01:38.666Z,229.40
2023-04-02T01:02:38.802Z,230.09
2023-04-02T01:03:38.789Z,230.30
2023-04-02T01:04:38.632Z,231.39
2023-04-02T01:05:38.640Z,229.90
2023-04-02T01:06:38.648Z,231.89
2023-04-02T01:07:38.663Z,230.17
2023-04-02T01:08:38.658Z,230.34
2023-04-02T01:09:38.649Z,230.55
2023-04-02T01:10:38.639Z,230.97
2023-04-02T01:11:38.636Z,231.53
2023-04-02T01:12:38.644Z,230.71
2023-04-02T01:13:38.640Z,230.82
2023-04-02T01:14:38.648Z,231.66
2023-04-02T01:15:38.887Z,229.58
2023-04-02T01:16:38.637Z,232.96
2023-04-02T01:17:38.627Z,230.95
2023-04-02T01:18:38.646Z,230.28
2023-04-02T01:19:38.634Z,231.42
2023-04-02T01:20:38.624Z,230.05
2023-04-02T01:21:38.621Z,230.62
2023-04-02T01:22:38.628Z,232.10
2023-04-02T01:23:38.607Z,230.45
2023-04-02T01:24:38.623Z,230.69
2023-04-02T01:25:38.607Z,229.96
2023-04-02T01:26:38.601Z,229.42
2023-04-02T01:27:38.606Z,231.47
2023-04-02T01:28:38.600Z,230.84
2023-04-02T01:29:38.614Z,232.21
2023-04-02T01:30:38.608Z,229.81
2023-04-02T01:31:38.629Z,232.41
2023-04-02T01:32:38.639Z,232.39
2023-04-02T01:33:38.607Z,228.53
2023-04-02T01:34:38.620Z,229.91
2023-04-02T01:35:38.667Z,228.66
2023-04-02T01:36:38.601Z,228.64
2023-04-02T01:37:38.591Z,228.91
2023-04-02T01:38:38.613Z,227.76
2023-04-02T01:39:38.613Z,228.48
2023-04-02T01:40:38.616Z,231.64
2023-04-02T01:41:38.616Z,230.19
2023-04-02T01:42:38.607Z,228.92
2023-04-02T01:43:38.601Z,230.62
2023-04-02T01:44:38.621Z,231.62
2023-04-02T01:45:38.617Z,229.81
2023-04-02T01:46:38.607Z,228.75
2023-04-02T01:47:38.680Z,229.50
2023-04-02T01:48:38.603Z,230.15
2023-04-02T01:49:38.622Z,229.97
2023-04-02T01:50:38.655Z,228.89
2023-04-02T01:51:38.631Z,227.30
2023-04-02T01:52:38.645Z,229.20
2023-04-02T01:53:38.670Z,229.69
2023-04-02T01:54:38.697Z,226.38
2023-04-02T01:55:38.678Z,229.23
2023-04-02T01:56:38.680Z,230.90
2023-04-02T01:57:38.691Z,230.51
2023-04-02T01:58:38.723Z,226.84
2023-04-02T01:59:38.724Z,227.99
2023-04-02T02:00:38.769Z,229.01
2023-04-02T02:01:38.739Z,230.21
2023-04-02T02:02:38.895Z,229.47
2023-04-02T02:03:38.753Z,230.46
2023-04-02T02:04:38.792Z,227.32
2023-04-02T02:05:38.777Z,230.14
2023-04-02T02:06:38.787Z,229.38
2023-04-02T02:07:38.797Z,229.24
2023-04-02T02:08:38.802Z,229.08
2023-04-02T02:09:38.807Z,228.35
2023-04-02T02:10:38.841Z,230.86
2023-04-02T02:11:38.837Z,228.18
2023-04-02T02:12:38.853Z,229.85
2023-04-02T02:13:40.974Z,230.75
2023-04-02T02:14:38.883Z,228.13
2023-04-02T02:15:38.887Z,228.37
2023-04-02T02:16:38.885Z,229.14
2023-04-02T02:17:38.911Z,226.82
2023-04-02T02:18:38.896Z,227.92
2023-04-02T02:19:38.938Z,230.18
2023-04-02T02:20:38.902Z,231.25
2023-04-02T02:21:38.902Z,230.57
2023-04-02T02:22:38.985Z,229.42
2023-04-02T02:23:38.934Z,230.36
2023-04-02T02:24:38.975Z,230.26
2023-04-02T02:25:38.950Z,229.61
2023-04-02T02:26:38.939Z,228.65
2023-04-02T02:27:38.939Z,227.87
2023-04-02T02:28:38.943Z,229.75
2023-04-02T02:29:38.948Z,231.33
2023-04-02T02:30:38.950Z,229.77
2023-04-02T02:31:38.994Z,228.32
2023-04-02T02:32:39.000Z,230.95
2023-04-02T02:33:38.987Z,226.89
2023-04-02T02:34:38.978Z,228.46
2023-04-02T02:35:39.298Z,226.45
2023-04-02T02:36:38.986Z,231.32
2023-04-02T02:37:38.996Z,227.30
2023-04-02T02:38:38.987Z,226.43
2023-04-02T02:39:38.987Z,226.70
2023-04-02T02:40:39.003Z,227.03
2023-04-02T02:41:38.973Z,227.85
2023-04-02T02:42:38.997Z,227.47
2023-04-02T02:43:38.986Z,228.24
2023-04-02T02:44:38.987Z,228.06
2023-04-02T02:45:39.111Z,226.26
2023-04-02T02:46:39.006Z,230.22
2023-04-02T02:47:39.049Z,226.36
2023-04-02T02:48:39.012Z,227.69
2023-04-02T02:49:38.984Z,224.99
2023-04-02T02:50:39.015Z,226.29
2023-04-02T02:51:38.986Z,229.48
2023-04-02T02:52:38.985Z,227.49
2023-04-02T02:53:38.981Z,227.17
2023-04-02T02:54:38.984Z,229.26
2023-04-02T02:55:38.992Z,226.46
2023-04-02T02:56:38.982Z,225.06
2023-04-02T02:57:38.993Z,224.32
2023-04-02T02:58:38.988Z,221.52
2023-04-02T02:59:38.999Z,220.90
2023-04-02T03:00:38.994Z,221.10
2023-04-02T03:01:39.063Z,220.08
2023-04-02T03:02:39.126Z,216.04
2023-04-02T03:03:39.100Z,207.92
2023-04-02T03:04:38.997Z,201.56
2023-04-02T03:05:39.005Z,197.38
2023-04-02T03:06:39.002Z,192.19
2023-04-02T03:07:39.002Z,187.08
2023-04-02T03:08:39.007Z,182.66
2023-04-02T03:09:39.008Z,179.85
2023-04-02T03:10:39.012Z,174.39
2023-04-02T03:11:39.006Z,168.20
2023-04-02T03:12:39.009Z,164.95
2023-04-02T03:13:39.011Z,159.99
2023-04-02T03:14:39.013Z,156.94
2023-04-02T03:15:39.210Z,151.64
2023-04-02T03:16:39.021Z,148.34
2023-04-02T03:17:39.078Z,145.87
2023-04-02T03:18:39.052Z,140.80
2023-04-02T03:19:39.039Z,136.25
2023-04-02T03:20:39.040Z,132.25
2023-04-02T03:21:39.063Z,127.58
2023-04-02T03:22:39.068Z,124.66
2023-04-02T03:23:39.108Z,120.34
2023-04-02T03:24:39.177Z,115.62
2023-04-02T03:25:39.236Z,114.14
2023-04-02T03:26:39.282Z,110.57
2023-04-02T03:27:39.341Z,106.14
2023-04-02T03:28:39.408Z,100.88
2023-04-02T03:29:39.463Z,97.79
2023-04-02T03:30:39.534Z,92.08
2023-04-02T03:31:39.613Z,89.93
2023-04-02T03:32:39.675Z,86.72
2023-04-02T03:33:39.735Z,82.28
2023-04-02T03:34:39.804Z,78.62
2023-04-02T03:35:39.890Z,77.24
2023-04-02T03:36:39.944Z,71.45
2023-04-02T03:37:40.002Z,71.79
2023-04-02T03:38:40.055Z,68.93
2023-04-02T03:39:40.120Z,66.75
2023-04-02T03:40:40.190Z,64.72
2023-04-02T03:41:40.255Z,59.48
2023-04-02T03:42:40.323Z,60.97
2023-04-02T03:43:40.405Z,56.69
2023-04-02T03:44:40.466Z,56.34
2023-04-02T03:45:40.536Z,53.20
2023-04-02T03:46:40.680Z,53.69
2023-04-02T03:47:40.679Z,52.03
2023-04-02T03:48:40.753Z,50.77
2023-04-02T03:49:40.813Z,47.52
2023-04-02T03:50:40.883Z,45.06
2023-04-02T03:51:40.970Z,46.13
2023-04-02T03:52:41.023Z,45.52
2023-04-02T03:53:41.095Z,41.90
2023-04-02T03:54:41.185Z,37.65
2023-04-02T03:55:42.158Z,37.66
2023-04-02T03:56:41.185Z,35.05
2023-04-02T03:57:41.185Z,34.42
2023-04-02T03:58:41.185Z,32.68
2023-04-02T03:59:41.169Z,32.14
2023-04-02T04:00:41.182Z,28.88
2023-04-02T04:01:41.209Z,25.55
2023-04-02T04:02:41.251Z,25.35
2023-04-02T04:03:41.236Z,26.79
2023-04-02T04:04:41.222Z,25.92
2023-04-02T04:05:41.254Z,25.55
2023-04-02T04:06:41.335Z,27.41
2023-04-02T04:07:41.426Z,28.03
2023-04-02T04:08:41.487Z,26.14
2023-04-02T04:09:41.573Z,28.45
2023-04-02T04:10:41.595Z,28.51
2023-04-02T04:11:41.591Z,28.16
2023-04-02T04:12:41.593Z,27.15
2023-04-02T04:13:41.594Z,27.86
2023-04-02T04:14:42.333Z,29.10
2023-04-02T04:15:41.614Z,29.52
2023-04-02T04:16:41.663Z,26.89
2023-04-02T04:17:41.715Z,28.59
2023-04-02T04:18:41.702Z,27.00
2023-04-02T04:19:41.752Z,27.44
2023-04-02T04:20:41.822Z,28.84
2023-04-02T04:21:41.883Z,27.48
2023-04-02T04:22:41.936Z,26.34
2023-04-02T04:23:41.987Z,25.00
2023-04-02T04:24:42.039Z,25.00
2023-04-02T04:25:42.092Z,25.81
2023-04-02T04:26:42.155Z,27.09
2023-04-02T04:27:42.217Z,25.21
2023-04-02T04:28:42.283Z,26.83
2023-04-02T04:29:42.338Z,27.77
2023-04-02T04:30:42.390Z,26.89
2023-04-02T04:31:42.449Z,26.26
2023-04-02T04:32:42.513Z,26.31
2023-04-02T04:33:42.560Z,26.77
2023-04-02T04:34:42.629Z,26.86
2023-04-02T04:35:42.666Z,26.54
2023-04-02T04:36:42.725Z,27.10
2023-04-02T04:37:43.467Z,29.53
2023-04-02T04:38:42.842Z,26.36
2023-04-02T04:39:42.895Z,27.57
2023-04-02T04:40:42.967Z,26.96
2023-04-02T04:41:43.014Z,25.97
2023-04-02T04:42:43.103Z,25.00
2023-04-02T04:43:43.146Z,25.96
2023-04-02T04:44:43.218Z,29.03
2023-04-02T04:45:43.270Z,30.23
2023-04-02T04:46:43.313Z,28.33
2023-04-02T04:47:43.375Z,28.62
2023-04-02T04:48:43.394Z,28.75
2023-04-02T04:49:43.415Z,28.87
2023-04-02T04:50:43.409Z,29.39
2023-04-02T04:51:43.430Z,28.72
2023-04-02T04:52:43.453Z,32.78
2023-04-02T04:53:43.476Z,31.46
2023-04-02T04:54:43.482Z,33.33
2023-04-02T04:55:43.498Z,31.77
2023-04-02T04:56:43.514Z,32.69
2023-04-02T04:57:43.522Z,31.38
2023-04-02T04:58:43.542Z,29.60
2023-04-02T04:59:43.576Z,30.68
2023-04-02T05:00:43.626Z,28.84
2023-04-02T05:01:43.678Z,31.57
2023-04-02T05:02:43.778Z,29.78
2023-04-02T05:03:43.785Z,29.29
2023-04-02T05:04:43.859Z,30.67
2023-04-02T05:05:43.867Z,29.45
2023-04-02T05:06:43.891Z,25.28
2023-04-02T05:07:43.905Z,26.05
2023-04-02T05:08:43.926Z,26.86
2023-04-02T05:09:43.992Z,27.60
2023-04-02T05:10:43.985Z,29.28
2023-04-02T05:11:44.028Z,27.92
2023-04-02T05:12:44.045Z,31.31
2023-04-02T05:13:44.088Z,29.50
2023-04-02T05:14:44.122Z,31.49
2023-04-02T05:15:44.125Z,31.68
2023-04-02T05:16:44.135Z,31.75
2023-04-02T05:17:44.172Z,32.40
2023-04-02T05:18:44.156Z,33.15
2023-04-02T05:19:44.176Z,36.27
2023-04-02T05:20:44.181Z,35.44
2023-04-02T05:21:44.210Z,35.04
2023-04-02T05:22:44.195Z,36.61
2023-04-02T05:23:44.205Z,37.36
2023-04-02T05:24:44.226Z,36.46
2023-04-02T05:25:44.240Z,36.97
2023-04-02T05:26:44.251Z,37.63
2023-04-02T05:27:44.257Z,36.38
2023-04-02T05:28:44.275Z,38.60
2023-04-02T05:29:44.279Z,37.77
2023-04-02T05:30:44.282Z,35.05
2023-04-02T05:31:44.375Z,39.03
2023-04-02T05:32:44.403Z,38.53
2023-04-02T05:33:44.323Z,39.16
2023-04-02T05:34:44.337Z,39.16
2023-04-02T05:35:44.379Z,39.86
2023-04-02T05:36:44.355Z,39.60
2023-04-02T05:37:44.381Z,39.99
2023-04-02T05:38:44.388Z,41.29
2023-04-02T05:39:44.393Z,43.64
2023-04-02T05:40:44.415Z,43.38
2023-04-02T05:41:44.410Z,44.78
2023-04-02T05:42:44.424Z,45.90
2023-04-02T05:43:44.427Z,47.06
2023-04-02T05:44:44.440Z,47.77
2023-04-02T05:45:44.452Z,49.57
2023-04-02T05:46:44.523Z,51.99
2023-04-02T05:47:44.501Z,50.29
2023-04-02T05:48:44.484Z,51.08
2023-04-02T05:49:44.502Z,52.33
2023-04-02T05:50:44.520Z,53.71
2023-04-02T05:51:44.510Z,53.77
2023-04-02T05:52:44.530Z,58.52
2023-04-02T05:53:44.530Z,56.08
2023-04-02T05:54:44.542Z,57.50
2023-04-02T05:55:44.564Z,57.18
2023-04-02T05:56:44.555Z,58.10
2023-04-02T05:57:52.836Z,60.41
2023-04-02T05:58:45.868Z,60.47
2023-04-02T05:59:44.571Z,60.91
2023-04-02T06:00:44.572Z,61.80
2023-04-02T06:01:44.593Z,61.94
2023-04-02T06:02:44.603Z,62.32
2023-04-02T06:03:44.703Z,64.09
2023-04-02T06:04:44.604Z,64.27
2023-04-02T06:05:44.611Z,63.52
2023-04-02T06:06:44.609Z,64.48
2023-04-02T06:07:44.633Z,65.58
2023-04-02T06:08:44.623Z,65.36
2023-04-02T06:09:44.641Z,66.00
2023-04-02T06:10:44.647Z,67.20
2023-04-02T06:11:44.655Z,67.67
2023-04-02T06:12:44.667Z,66.43
2023-04-02T06:13:44.667Z,65.57
2023-04-02T06:14:44.663Z,62.83
2023-04-02T06:15:47.152Z,60.14
2023-04-02T06:16:44.783Z,60.18
2023-04-02T06:17:44.730Z,60.49
2023-04-02T06:18:44.691Z,61.65
2023-04-02T06:19:44.700Z,65.79
2023-04-02T06:20:44.706Z,72.64
2023-04-02T06:21:44.718Z,77.62
2023-04-02T06:22:44.717Z,83.74
2023-04-02T06:23:44.730Z,84.80
2023-04-02T06:24:44.735Z,87.68
2023-04-02T06:25:44.747Z,89.48
2023-04-02T06:26:44.749Z,91.66
2023-04-02T06:27:44.765Z,93.13
2023-04-02T06:28:44.751Z,94.59
2023-04-02T06:29:44.776Z,95.18
2023-04-02T06:30:44.835Z,92.06
2023-04-02T06:31:44.818Z,95.46
2023-04-02T06:32:44.848Z,91.36
2023-04-02T06:33:44.833Z,90.80
2023-04-02T06:34:44.831Z,91.86
2023-04-02T06:35:44.854Z,90.30
2023-04-02T06:36:44.859Z,89.62
2023-04-02T06:37:44.887Z,88.03
2023-04-02T06:38:44.873Z,86.41
2023-04-02T06:39:44.881Z,86.62
2023-04-02T06:40:44.926Z,87.49
2023-04-02T06:41:44.908Z,88.27
2023-04-02T06:42:44.920Z,89.97
2023-04-02T06:43:44.919Z,87.98
2023-04-02T06:44:44.921Z,88.48
2023-04-02T06:45:44.948Z,90.74
2023-04-02T06:46:44.955Z,90.34
2023-04-02T06:47:44.983Z,92.20
2023-04-02T06:48:44.966Z,91.28
2023-04-02T06:49:44.970Z,95.86
2023-04-02T06:50:44.976Z,94.06
2023-04-02T06:51:44.996Z,97.24
2023-04-02T06:52:45.009Z,96.45
2023-04-02T06:53:45.018Z,95.79
2023-04-02T06:54:45.045Z,94.53
2023-04-02T06:55:45.059Z,94.25
2023-04-02T06:56:45.046Z,94.41
2023-04-02T06:57:45.044Z,95.38
2023-04-02T06:58:45.046Z,95.08
2023-04-02T06:59:45.050Z,93.30
2023-04-02T07:00:45.053Z,90.35
2023-04-02T07:01:45.123Z,89.95
2023-04-02T07:02:45.097Z,85.52
2023-04-02T07:03:45.079Z,85.42
2023-04-02T07:04:45.112Z,81.07
2023-04-02T07:05:45.070Z,82.04
2023-04-02T07:06:45.068Z,78.42
2023-04-02T07:07:45.075Z,78.83
2023-04-02T07:08:45.072Z,72.17
2023-04-02T07:09:45.081Z,68.56
2023-04-02T07:10:45.099Z,63.63
2023-04-02T07:11:45.070Z,60.79
2023-04-02T07:12:45.081Z,58.69
2023-04-02T07:13:45.110Z,53.82
2023-04-02T07:14:45.128Z,49.81
2023-04-02T07:15:45.168Z,49.29
2023-04-02T07:16:45.208Z,44.41
2023-04-02T07:17:45.252Z,39.11
2023-04-02T07:18:45.260Z,34.23
2023-04-02T07:19:45.303Z,35.55
2023-04-02T07:20:45.343Z,30.23
2023-04-02T07:21:45.384Z,25.57
2023-04-02T07:22:45.396Z,26.38
2023-04-02T07:23:45.429Z,25.00
2023-04-02T07:24:45.438Z,25.87
2023-04-02T07:25:45.489Z,26.30
2023-04-02T07:26:45.532Z,25.89
2023-04-02T07:27:45.592Z,25.16
2023-04-02T07:28:45.603Z,26.60
2023-04-02T07:29:45.634Z,25.00
2023-04-02T07:30:45.665Z,26.99
2023-04-02T07:31:45.780Z,25.74
2023-04-02T07:32:45.752Z,24.35
2023-04-02T07:33:45.738Z,19.93
2023-04-02T07:34:45.742Z,18.07
2023-04-02T07:35:45.754Z,14.50
2023-04-02T07:36:45.751Z,11.95
2023-04-02T07:37:45.776Z,26.84
2023-04-02T07:38:45.787Z,25.00
2023-04-02T07:39:45.795Z,25.39
2023-04-02T07:40:45.790Z,26.70
2023-04-02T07:41:45.795Z,25.00
2023-04-02T07:42:45.796Z,25.00
2023-04-02T07:43:45.808Z,25.91
2023-04-02T07:44:45.826Z,25.00
2023-04-02T07:45:45.909Z,25.00
2023-04-02T07:46:46.016Z,26.13
2023-04-02T07:47:46.025Z,25.43
2023-04-02T07:48:46.082Z,25.00
2023-04-02T07:49:46.178Z,25.00
2023-04-02T07:50:46.217Z,26.35
2023-04-02T07:51:46.281Z,25.00
2023-04-02T07:52:46.324Z,25.36
2023-04-02T07:53:46.399Z,27.89
2023-04-02T07:54:46.407Z,25.19
2023-04-02T07:55:46.458Z,24.17
2023-04-02T07:56:46.525Z,24.75
2023-04-02T07:57:46.934Z,25.06
2023-04-02T07:58:46.650Z,25.00
2023-04-02T07:59:46.718Z,24.58
2023-04-02T08:00:46.781Z,25.00
2023-04-02T08:01:46.862Z,25.14
2023-04-02T08:02:46.923Z,27.11
2023-04-02T08:03:47.024Z,25.97
2023-04-02T08:04:47.020Z,25.50
2023-04-02T08:05:47.067Z,25.67
2023-04-02T08:06:47.145Z,25.00
2023-04-02T08:07:47.195Z,27.15
2023-04-02T08:08:47.264Z,26.20
2023-04-02T08:09:47.312Z,25.00
2023-04-02T08:10:47.384Z,25.23
2023-04-02T08:11:47.457Z,25.27
2023-04-02T08:12:47.521Z,25.53
2023-04-02T08:13:47.626Z,25.00
2023-04-02T08:14:47.684Z,25.46
2023-04-02T08:15:47.760Z,26.90
2023-04-02T08:16:47.864Z,25.00
2023-04-02T08:17:48.046Z,25.01
2023-04-02T08:18:47.997Z,26.64
2023-04-02T08:19:54.711Z,25.63
2023-04-02T08:20:49.056Z,25.59
2023-04-02T08:21:48.097Z,25.69
2023-04-02T08:22:48.085Z,26.14
2023-04-02T08:23:48.090Z,26.34
2023-04-02T08:24:48.103Z,28.73
2023-04-02T08:25:48.120Z,26.49
2023-04-02T08:26:48.123Z,29.52
2023-04-02T08:27:48.164Z,25.09
2023-04-02T08:28:48.172Z,26.28
2023-04-02T08:29:48.231Z,26.64
2023-04-02T08:30:48.281Z,25.00
2023-04-02T08:31:48.340Z,25.59
2023-04-02T08:32:48.466Z,25.77
2023-04-02T08:33:48.475Z,27.29
2023-04-02T08:34:48.523Z,27.36
2023-04-02T08:35:48.588Z,25.63
2023-04-02T08:36:48.630Z,28.31
2023-04-02T08:37:48.703Z,29.56
2023-04-02T08:38:48.769Z,30.55
2023-04-02T08:39:48.856Z,27.45
2023-04-02T08:40:48.895Z,25.00
2023-04-02T08:41:48.972Z,25.99
2023-04-02T08:42:49.056Z,25.91
2023-04-02T08:43:49.140Z,25.23
2023-04-02T08:44:49.205Z,27.77
2023-04-02T08:45:49.281Z,25.36
2023-04-02T08:46:49.352Z,25.00
2023-04-02T08:47:49.437Z,26.00
2023-04-02T08:48:49.543Z,30.02
2023-04-02T08:49:49.592Z,30.82
2023-04-02T08:50:49.661Z,29.12
2023-04-02T08:51:49.741Z,28.54
2023-04-02T08:52:49.834Z,29.29
2023-04-02T08:53:49.911Z,29.97
2023-04-02T08:54:49.991Z,29.53
2023-04-02T08:55:50.074Z,25.00
2023-04-02T08:56:50.171Z,27.29
2023-04-02T08:57:50.232Z,26.82
2023-04-02T08:58:50.328Z,26.43
2023-04-02T08:59:50.397Z,25.62
2023-04-02T09:00:50.466Z,33.43
2023-04-02T09:01:50.553Z,37.99
2023-04-02T09:02:50.614Z,42.61
2023-04-02T09:03:50.677Z,52.13
2023-04-02T09:04:50.794Z,56.45
2023-04-02T09:05:50.847Z,64.00
2023-04-02T09:06:50.933Z,65.55
2023-04-02T09:07:50.986Z,69.54
2023-04-02T09:08:51.055Z,76.74
2023-04-02T09:09:51.142Z,80.38
2023-04-02T09:10:51.223Z,84.84
2023-04-02T09:11:51.293Z,88.05
2023-04-02T09:12:51.365Z,92.48
2023-04-02T09:13:51.415Z,97.46
2023-04-02T09:14:51.484Z,102.45
2023-04-02T09:15:51.616Z,104.67
2023-04-02T09:16:51.552Z,104.83
2023-04-02T09:17:54.396Z,106.05
2023-04-02T09:18:51.568Z,109.15
2023-04-02T09:19:51.580Z,114.78
2023-04-02T09:20:51.593Z,124.79
2023-04-02T09:21:51.600Z,128.22
2023-04-02T09:22:51.602Z,131.20
2023-04-02T09:23:51.610Z,134.07
2023-04-02T09:24:51.618Z,138.17
2023-04-02T09:26:03.666Z,142.15
2023-04-02T09:26:52.630Z,142.31
2023-04-02T09:27:51.630Z,143.11
2023-04-02T09:28:51.644Z,145.12
2023-04-02T09:29:51.642Z,149.13
2023-04-02T09:30:51.645Z,155.21
2023-04-02T09:31:51.672Z,157.52
2023-04-02T09:32:51.672Z,159.62
2023-04-02T09:33:51.668Z,162.15
2023-04-02T09:34:51.675Z,165.14
2023-04-02T09:35:51.704Z,166.00
2023-04-02T09:36:51.680Z,169.27
2023-04-02T09:37:51.682Z,170.08
2023-04-02T09:38:51.687Z,172.64
2023-04-02T09:39:51.689Z,173.48
2023-04-02T09:40:51.746Z,176.28
2023-04-02T09:42:02.806Z,177.75
2023-04-02T09:42:52.717Z,177.86
2023-04-02T09:43:51.713Z,178.27
2023-04-02T09:44:51.734Z,179.22
2023-04-02T09:45:51.729Z,181.25
2023-04-02T09:46:51.795Z,178.05
2023-04-02T09:47:51.779Z,179.29
2023-04-02T09:48:51.749Z,181.55
2023-04-02T09:49:51.775Z,185.43
2023-04-02T09:50:51.761Z,189.32
2023-04-02T09:51:51.754Z,191.46
2023-04-02T09:52:51.758Z,192.97
2023-04-02T09:53:51.775Z,192.90
2023-04-02T09:54:51.777Z,193.73
2023-04-02T09:55:51.762Z,196.25
2023-04-02T09:56:51.777Z,196.25
2023-04-02T09:57:51.755Z,195.66
2023-04-02T09:58:51.758Z,197.61
2023-04-02T09:59:51.758Z,198.75
2023-04-02T10:00:51.769Z,200.77
2023-04-02T10:01:51.766Z,201.03
2023-04-02T10:02:51.795Z,202.19
2023-04-02T10:03:51.798Z,203.68
2023-04-02T10:04:51.784Z,204.40
2023-04-02T10:05:51.779Z,203.62
2023-04-02T10:06:51.788Z,205.91
2023-04-02T10:07:51.776Z,206.30
2023-04-02T10:08:51.779Z,206.46
2023-04-02T10:09:51.786Z,207.46
2023-04-02T10:10:51.806Z,209.08
2023-04-02T10:11:51.801Z,208.57
2023-04-02T10:12:51.818Z,209.50
2023-04-02T10:13:51.813Z,211.18
2023-04-02T10:14:51.828Z,210.08
2023-04-02T10:15:51.835Z,211.81
2023-04-02T10:16:51.851Z,212.99
2023-04-02T10:17:51.861Z,211.45
2023-04-02T10:18:51.896Z,214.59
2023-04-02T10:19:51.964Z,213.71
2023-04-02T10:20:52.040Z,213.94
2023-04-02T10:21:52.104Z,215.85
2023-04-02T10:22:52.167Z,215.41
2023-04-02T10:23:52.182Z,216.06
2023-04-02T10:24:52.251Z,216.77
2023-04-02T10:25:52.315Z,217.50
2023-04-02T10:26:52.376Z,218.32
2023-04-02T10:27:52.415Z,217.74
2023-04-02T10:28:52.471Z,216.62
2023-04-02T10:29:52.547Z,218.25
2023-04-02T10:30:52.622Z,217.93
2023-04-02T10:31:52.690Z,218.58
2023-04-02T10:32:52.784Z,218.76
2023-04-02T10:33:52.793Z,218.67
2023-04-02T10:34:52.858Z,220.19
2023-04-02T10:35:52.930Z,221.46
2023-04-02T10:36:52.986Z,220.81
2023-04-02T10:37:53.042Z,221.89
2023-04-02T10:38:53.116Z,222.34
2023-04-02T10:39:53.195Z,221.78
2023-04-02T10:40:54.808Z,222.66
2023-04-02T10:41:53.440Z,222.04
2023-04-02T10:42:53.506Z,222.18
2023-04-02T10:43:53.574Z,223.38
2023-04-02T10:44:53.653Z,223.92
2023-04-02T10:45:53.720Z,223.29
2023-04-02T10:46:53.783Z,224.64
2023-04-02T10:47:53.880Z,222.24
2023-04-02T10:48:53.916Z,223.54
2023-04-02T10:49:53.959Z,224.83
2023-04-02T10:50:54.032Z,224.88
2023-04-02T10:51:54.097Z,225.45
2023-04-02T10:52:55.496Z,225.55
2023-04-02T10:53:54.224Z,226.47
2023-04-02T10:54:54.277Z,225.70
2023-04-02T10:55:54.348Z,225.38
2023-04-02T10:56:54.399Z,225.83
2023-04-02T10:57:54.441Z,225.83
2023-04-02T10:58:56.821Z,225.95
2023-04-02T10:59:54.492Z,227.55
2023-04-02T11:00:54.496Z,227.76
2023-04-02T11:01:54.584Z,228.67
2023-04-02T11:02:54.586Z,226.76
2023-04-02T11:03:56.989Z,228.11
2023-04-02T11:04:57.078Z,228.23
2023-04-02T11:05:54.488Z,228.23
2023-04-02T11:07:07.289Z,228.49
2023-04-02T11:07:55.463Z,228.32
2023-04-02T11:08:54.465Z,228.54
2023-04-02T11:09:54.460Z,228.87
2023-04-02T11:10:54.480Z,229.43
2023-04-02T11:11:54.464Z,229.99
2023-04-02T11:12:54.474Z,229.76
2023-04-02T11:13:54.450Z,230.39
2023-04-02T11:14:54.452Z,230.06
2023-04-02T11:15:54.497Z,230.12
2023-04-02T11:16:54.461Z,230.34
2023-04-02T11:17:54.459Z,230.38
2023-04-02T11:18:54.430Z,231.04
2023-04-02T11:19:54.429Z,230.02
2023-04-02T11:20:54.421Z,231.73
2023-04-02T11:21:59.500Z,230.50
2023-04-02T11:22:55.427Z,230.56
2023-04-02T11:23:54.427Z,230.67
2023-04-02T11:24:54.429Z,230.57
2023-04-02T11:25:54.426Z,230.76
2023-04-02T11:26:54.418Z,231.38
2023-04-02T11:27:54.422Z,233.46
2023-04-02T11:28:54.406Z,231.68
2023-04-02T11:29:54.408Z,231.28
2023-04-02T11:30:54.466Z,231.36
2023-04-02T11:31:54.558Z,232.54
2023-04-02T11:32:54.448Z,231.00
2023-04-02T11:33:54.448Z,232.23
2023-04-02T11:35:05.992Z,232.01
2023-04-02T11:35:55.520Z,232.07
2023-04-02T11:36:54.513Z,232.22
2023-04-02T11:37:54.488Z,232.86
2023-04-02T11:38:57.602Z,233.30
2023-04-02T11:39:55.497Z,232.13
2023-04-02T11:40:54.485Z,232.57
2023-04-02T11:41:54.481Z,232.95
2023-04-02T11:42:54.486Z,233.03
2023-04-02T11:43:54.485Z,232.75
2023-04-02T11:44:54.487Z,234.01
2023-04-02T11:45:54.779Z,234.70
2023-04-02T11:46:54.521Z,233.66
2023-04-02T11:47:54.511Z,234.15
2023-04-02T11:48:54.476Z,234.99
2023-04-02T11:49:54.473Z,233.35
2023-04-02T11:50:54.500Z,234.10
2023-04-02T11:52:05.615Z,233.97
2023-04-02T11:52:55.548Z,234.06
2023-04-02T11:53:54.542Z,234.24
2023-04-02T11:54:54.544Z,234.06
2023-04-02T11:55:54.549Z,234.17
2023-04-02T11:56:54.596Z,235.65
2023-04-02T11:57:54.537Z,234.08
2023-04-02T11:58:54.549Z,234.82
2023-04-02T11:59:54.536Z,235.40
2023-04-02T12:00:54.542Z,235.39
2023-04-02T12:01:54.560Z,235.03
2023-04-02T12:02:54.555Z,235.24
2023-04-02T12:03:54.595Z,235.39
2023-04-02T12:04:54.650Z,234.44
2023-04-02T12:05:54.754Z,235.62
2023-04-02T12:06:54.760Z,236.25
2023-04-02T12:07:54.788Z,235.31
2023-04-02T12:08:57.987Z,236.07
2023-04-02T12:09:54.857Z,236.33
2023-04-02T12:10:54.859Z,235.53
2023-04-02T12:11:54.862Z,235.82
2023-04-02T12:12:54.862Z,236.92
2023-04-02T12:13:54.869Z,234.08
2023-04-02T12:14:54.872Z,237.47
2023-04-02T12:15:54.866Z,236.60
2023-04-02T12:16:54.894Z,236.01
2023-04-02T12:17:54.963Z,236.20
2023-04-02T12:18:54.877Z,236.60
2023-04-02T12:19:54.845Z,235.04
2023-04-02T12:20:54.847Z,237.99
2023-04-02T12:21:54.847Z,237.48
2023-04-02T12:22:54.854Z,237.49
2023-04-02T12:23:54.845Z,237.14
2023-04-02T12:24:54.841Z,236.21
2023-04-02T12:25:54.861Z,236.73
2023-04-02T12:26:54.821Z,237.71
2023-04-02T12:27:54.823Z,237.49
2023-04-02T12:28:54.810Z,236.97
2023-04-02T12:29:54.824Z,236.42
2023-04-02T12:30:54.854Z,238.05
2023-04-02T12:31:54.804Z,238.09
2023-04-02T12:32:54.807Z,238.87
2023-04-02T12:33:54.823Z,238.77
2023-04-02T12:34:54.771Z,239.18
2023-04-02T12:35:54.842Z,237.21
2023-04-02T12:36:54.785Z,237.91
2023-04-02T12:37:54.778Z,238.57
2023-04-02T12:38:54.780Z,237.40
2023-04-02T12:39:54.769Z,238.40